Time;durP1;ratioP1;P1;durP2;ratioP2;P2;SDS_P1;SDS_P2;PMS_P1;PMS_P2;Temp;Humidity;BMP_temperature;BMP_pressure;BME280_temperature;BME280_humidity;BME280_pressure;Samples;Min_cycle;Max_cycle;Signal;HPM_P1;HPM_P2
2023/08/28 00:02:10;;;;;;;15.85;9.45;;;12.60;99.90;;;;;;4998676;28;20093;-66
2023/08/28 00:04:36;;;;;;;15.48;9.38;;;12.60;99.90;;;;;;4994086;28;20065;-67
2023/08/28 00:07:02;;;;;;;13.98;8.88;;;12.60;99.90;;;;;;5010603;28;20038;-67
2023/08/28 00:09:27;;;;;;;13.70;9.38;;;12.50;99.90;;;;;;4997198;28;20037;-67
2023/08/28 00:11:57;;;;;;;14.02;9.10;;;12.50;99.90;;;;;;4992761;28;20053;-67
2023/08/28 00:14:24;;;;;;;12.38;9.07;;;12.50;99.90;;;;;;4992857;28;20055;-67
2023/08/28 00:16:50;;;;;;;18.10;9.35;;;12.40;99.90;;;;;;4993764;28;20038;-67
2023/08/28 00:19:15;;;;;;;12.25;8.93;;;12.40;99.90;;;;;;4991949;28;20033;-67
2023/08/28 00:21:41;;;;;;;12.20;8.68;;;12.40;99.90;;;;;;5015040;28;20042;-68
2023/08/28 00:24:07;;;;;;;12.43;9.13;;;12.40;99.90;;;;;;5014939;28;20078;-69
2023/08/28 00:26:32;;;;;;;14.52;8.65;;;12.40;99.90;;;;;;4984667;28;20042;-68
2023/08/28 00:28:58;;;;;;;14.00;9.10;;;12.30;99.90;;;;;;5014295;28;20037;-69
2023/08/28 00:31:24;;;;;;;14.18;9.07;;;12.30;99.90;;;;;;5014437;28;20443;-68
2023/08/28 00:33:49;;;;;;;14.05;9.30;;;12.30;99.90;;;;;;5001603;28;20121;-67
2023/08/28 00:36:16;;;;;;;13.13;9.27;;;12.30;99.90;;;;;;5006817;28;20042;-68
2023/08/28 00:38:41;;;;;;;13.57;8.73;;;12.30;99.90;;;;;;5011368;28;20088;-67
2023/08/28 00:41:07;;;;;;;13.95;9.02;;;12.30;99.90;;;;;;4988680;28;20049;-68
2023/08/28 00:43:33;;;;;;;14.35;9.52;;;12.20;99.90;;;;;;4997986;28;20038;-68
2023/08/28 00:46:00;;;;;;;15.73;9.43;;;12.20;99.90;;;;;;5013858;28;20034;-68
2023/08/28 00:48:27;;;;;;;16.52;9.30;;;12.20;99.90;;;;;;4992239;28;20081;-67
2023/08/28 00:50:52;;;;;;;14.98;9.23;;;12.10;99.90;;;;;;4982995;28;20040;-68
2023/08/28 00:53:18;;;;;;;15.02;9.43;;;12.20;99.90;;;;;;5015276;28;20041;-68
2023/08/28 00:55:44;;;;;;;14.90;8.98;;;12.10;99.90;;;;;;5021157;28;20128;-68
2023/08/28 00:58:10;;;;;;;14.98;9.75;;;12.10;99.90;;;;;;5008837;28;20034;-68
2023/08/28 01:00:35;;;;;;;12.43;9.10;;;12.20;99.90;;;;;;5001746;28;20046;-68
2023/08/28 01:03:01;;;;;;;15.63;9.82;;;12.10;99.90;;;;;;5020830;28;20049;-68
2023/08/28 01:05:38;;;;;;;13.77;8.75;;;12.20;99.90;;;;;;5019187;28;20034;-68
2023/08/28 01:08:23;;;;;;;15.30;9.82;;;12.20;99.90;;;;;;5006380;28;20046;-69
2023/08/28 01:10:54;;;;;;;12.60;9.23;;;12.20;99.90;;;;;;5018701;28;20033;-67
2023/08/28 01:13:36;;;;;;;12.32;9.05;;;12.20;99.90;;;;;;5021097;28;20037;-68
2023/08/28 01:16:03;;;;;;;15.48;8.75;;;12.10;99.90;;;;;;5011569;28;20038;-68
2023/08/28 01:18:30;;;;;;;13.00;9.32;;;11.90;99.90;;;;;;5017346;28;20036;-68
2023/08/28 01:20:57;;;;;;;13.23;9.23;;;11.80;99.90;;;;;;5004744;28;20041;-68
2023/08/28 01:23:38;;;;;;;14.43;9.68;;;11.70;99.90;;;;;;5021114;28;20124;-67
2023/08/28 01:26:04;;;;;;;13.88;9.68;;;11.60;99.90;;;;;;4977807;28;20154;-68
2023/08/28 01:28:31;;;;;;;16.95;9.95;;;11.60;99.90;;;;;;5016014;28;20045;-68
2023/08/28 01:30:56;;;;;;;16.40;10.07;;;11.60;99.90;;;;;;5021228;28;20038;-69
2023/08/28 01:33:22;;;;;;;16.25;10.60;;;11.50;99.90;;;;;;5004483;28;20148;-68
2023/08/28 01:36:04;;;;;;;19.92;11.65;;;11.50;99.90;;;;;;5014890;28;20396;-68
2023/08/28 01:38:33;;;;;;;;;;;11.50;99.90;;;;;;5001028;28;20034;-67
2023/08/28 01:41:07;;;;;;;20.15;10.95;;;11.50;99.90;;;;;;4997704;28;20008;-68
2023/08/28 01:43:43;;;;;;;22.15;12.27;;;11.50;99.90;;;;;;4994386;28;20037;-68
2023/08/28 01:46:10;;;;;;;20.35;12.25;;;11.50;99.90;;;;;;5021564;28;20044;-68
2023/08/28 01:48:40;;;;;;;18.38;11.60;;;11.50;99.90;;;;;;5012610;28;20027;-67
2023/08/28 01:51:06;;;;;;;18.20;12.95;;;11.50;99.90;;;;;;5018403;28;20045;-68
2023/08/28 01:53:32;;;;;;;18.58;12.77;;;11.40;99.90;;;;;;5020443;28;20042;-69
2023/08/28 01:56:14;;;;;;;19.38;12.82;;;11.40;99.90;;;;;;4997991;28;20057;-68
2023/08/28 01:58:45;;;;;;;21.85;13.43;;;11.40;99.90;;;;;;5015156;28;20392;-68
2023/08/28 02:01:11;;;;;;;;;;;11.50;99.90;;;;;;5003080;28;20057;-68
2023/08/28 02:03:40;;;;;;;21.00;13.30;;;11.50;99.90;;;;;;5018356;28;19922;-68
2023/08/28 02:06:06;;;;;;;22.10;14.43;;;11.50;99.90;;;;;;4991757;28;20471;-68
2023/08/28 02:08:32;;;;;;;23.58;13.00;;;11.40;99.90;;;;;;5010609;28;20041;-67
2023/08/28 02:10:58;;;;;;;22.27;14.20;;;11.40;99.90;;;;;;5014112;28;20049;-67
2023/08/28 02:13:24;;;;;;;22.17;14.00;;;11.40;99.90;;;;;;5008056;28;20041;-66
2023/08/28 02:15:49;;;;;;;22.83;13.65;;;11.40;99.90;;;;;;5007822;28;20034;-67
2023/08/28 02:18:15;;;;;;;24.67;14.25;;;11.40;99.90;;;;;;5013166;28;20061;-67
2023/08/28 02:20:41;;;;;;;22.23;14.55;;;11.40;99.90;;;;;;5014368;28;20042;-66
2023/08/28 02:23:07;;;;;;;24.17;14.63;;;11.40;99.90;;;;;;4985394;28;20149;-67
2023/08/28 02:25:32;;;;;;;22.88;14.23;;;11.40;99.90;;;;;;5007491;28;20049;-67
2023/08/28 02:27:58;;;;;;;25.08;14.82;;;11.40;99.90;;;;;;4995966;28;20073;-68
2023/08/28 02:30:23;;;;;;;23.23;14.00;;;11.40;99.90;;;;;;5001126;28;20034;-67
2023/08/28 02:32:49;;;;;;;21.75;14.30;;;11.40;99.90;;;;;;5012251;28;20062;-68
2023/08/28 02:35:15;;;;;;;22.35;14.32;;;11.40;99.90;;;;;;5013856;28;20092;-67
2023/08/28 02:37:41;;;;;;;22.63;13.77;;;11.40;99.90;;;;;;5013767;28;20496;-67
2023/08/28 02:40:09;;;;;;;21.50;14.02;;;11.40;99.90;;;;;;5005210;28;20052;-68
2023/08/28 02:42:36;;;;;;;21.00;14.55;;;11.40;99.90;;;;;;5013643;28;20097;-66
2023/08/28 02:45:02;;;;;;;23.00;13.95;;;11.40;99.90;;;;;;5013543;28;20046;-66
2023/08/28 02:47:28;;;;;;;22.52;14.20;;;11.30;99.90;;;;;;5004248;28;20026;-66
2023/08/28 02:49:53;;;;;;;26.98;15.07;;;11.30;99.90;;;;;;4985246;28;20667;-66
2023/08/28 02:52:19;;;;;;;26.40;15.20;;;11.30;99.90;;;;;;5013380;28;20041;-66
2023/08/28 02:54:45;;;;;;;22.23;14.10;;;11.30;99.90;;;;;;5008630;28;20046;-66
2023/08/28 02:57:10;;;;;;;24.70;14.68;;;11.20;99.90;;;;;;5007470;28;20456;-66
2023/08/28 02:59:36;;;;;;;21.63;13.90;;;11.20;99.90;;;;;;5012880;28;20088;-66
2023/08/28 03:02:01;;;;;;;24.90;14.60;;;11.20;99.90;;;;;;4995808;28;20505;-66
2023/08/28 03:04:27;;;;;;;21.92;13.93;;;11.20;99.90;;;;;;5003309;28;20072;-67
2023/08/28 03:06:52;;;;;;;23.88;15.07;;;11.30;99.90;;;;;;5003609;28;20034;-67
2023/08/28 03:09:18;;;;;;;27.15;15.50;;;11.30;99.90;;;;;;5012641;28;20048;-67
2023/08/28 03:11:44;;;;;;;24.90;15.30;;;11.30;99.90;;;;;;5006729;28;20037;-67
2023/08/28 03:14:10;;;;;;;25.30;15.50;;;11.30;99.90;;;;;;4997181;28;20047;-66
2023/08/28 03:16:35;;;;;;;22.60;14.77;;;11.30;99.90;;;;;;4995306;28;20045;-67
2023/08/28 03:19:01;;;;;;;23.08;15.55;;;11.40;99.90;;;;;;5033167;22;20060;-67
2023/08/28 03:21:26;;;;;;;23.60;13.95;;;11.40;99.90;;;;;;5034201;28;20045;-67
2023/08/28 03:23:52;;;;;;;25.73;14.40;;;11.40;99.90;;;;;;5036119;28;20041;-69
2023/08/28 03:26:18;;;;;;;23.33;14.68;;;11.40;99.90;;;;;;5024632;28;20041;-68
2023/08/28 03:28:44;;;;;;;25.20;14.98;;;11.30;99.90;;;;;;5016916;28;20498;-68
2023/08/28 03:31:09;;;;;;;24.80;15.45;;;11.40;99.90;;;;;;5012611;28;20095;-68
2023/08/28 03:33:35;;;;;;;23.33;14.05;;;11.40;99.90;;;;;;5008569;28;20033;-68
2023/08/28 03:36:02;;;;;;;24.20;14.65;;;11.40;99.90;;;;;;5009840;28;20045;-67
2023/08/28 03:38:28;;;;;;;21.60;13.25;;;11.40;99.90;;;;;;5034440;28;20039;-67
2023/08/28 03:40:54;;;;;;;22.60;13.20;;;11.40;99.90;;;;;;5032684;28;20034;-66
2023/08/28 03:43:20;;;;;;;24.33;14.48;;;11.40;99.90;;;;;;5023124;28;20128;-68
2023/08/28 03:45:45;;;;;;;20.88;13.82;;;11.40;99.90;;;;;;5032402;28;20157;-68
2023/08/28 03:48:11;;;;;;;24.20;14.13;;;11.40;99.90;;;;;;5036461;28;20060;-68
2023/08/28 03:50:37;;;;;;;23.92;14.20;;;11.40;99.90;;;;;;5032307;28;20059;-68
2023/08/28 03:53:03;;;;;;;20.77;13.25;;;11.30;99.90;;;;;;5013093;28;20045;-68
2023/08/28 03:55:29;;;;;;;23.65;13.65;;;11.20;99.90;;;;;;5027552;28;20034;-68
2023/08/28 03:57:56;;;;;;;22.35;13.48;;;11.00;99.90;;;;;;5031363;28;20041;-67
2023/08/28 04:00:21;;;;;;;21.35;12.43;;;11.00;99.90;;;;;;5031772;28;20088;-66
2023/08/28 04:02:48;;;;;;;20.50;13.50;;;10.90;99.90;;;;;;5023344;28;20511;-66
2023/08/28 04:05:16;;;;;;;25.55;13.65;;;10.90;99.90;;;;;;5023697;28;20112;-66
2023/08/28 04:07:42;;;;;;;19.02;11.95;;;10.80;99.90;;;;;;5031754;28;20140;-67
2023/08/28 04:10:08;;;;;;;20.30;12.38;;;10.80;99.90;;;;;;5007971;28;20046;-68
2023/08/28 04:12:33;;;;;;;24.42;13.82;;;10.70;99.90;;;;;;5020077;28;20401;-66
2023/08/28 04:14:59;;;;;;;22.88;13.52;;;10.70;99.90;;;;;;5022683;28;20053;-67
2023/08/28 04:17:25;;;;;;;24.75;12.93;;;10.70;99.90;;;;;;5022762;28;20104;-67
2023/08/28 04:19:52;;;;;;;20.15;12.70;;;10.70;99.90;;;;;;5022502;28;20029;-68
2023/08/28 04:22:21;;;;;;;17.90;12.88;;;10.60;99.90;;;;;;5012876;28;20124;-68
2023/08/28 04:24:50;;;;;;;22.88;12.68;;;10.60;99.90;;;;;;5031853;28;20037;-68
2023/08/28 04:27:15;;;;;;;20.35;12.32;;;10.60;99.90;;;;;;5001385;28;20117;-67
2023/08/28 04:29:41;;;;;;;25.60;13.43;;;10.60;99.90;;;;;;5028689;28;20108;-67
2023/08/28 04:32:07;;;;;;;23.48;12.77;;;10.60;99.90;;;;;;5014033;28;20045;-68
2023/08/28 04:34:32;;;;;;;26.30;14.02;;;10.60;99.90;;;;;;5022361;28;20029;-68
2023/08/28 04:36:58;;;;;;;18.00;11.70;;;10.60;99.90;;;;;;5024007;28;20030;-66
2023/08/28 04:39:24;;;;;;;25.48;12.23;;;10.50;99.90;;;;;;5013370;28;20049;-66
2023/08/28 04:41:52;;;;;;;19.17;12.25;;;10.50;99.90;;;;;;5013667;28;20129;-66
2023/08/28 04:44:18;;;;;;;18.42;12.18;;;10.50;99.90;;;;;;5023242;28;20049;-67
2023/08/28 04:46:45;;;;;;;19.23;11.70;;;10.50;99.90;;;;;;5009582;28;20395;-68
2023/08/28 04:49:11;;;;;;;18.95;11.23;;;10.50;99.90;;;;;;5030987;28;20037;-68
2023/08/28 04:51:37;;;;;;;25.02;12.90;;;10.50;99.90;;;;;;5003841;28;20038;-68
2023/08/28 04:54:02;;;;;;;21.90;12.77;;;10.50;99.90;;;;;;5024206;28;20069;-66
2023/08/28 04:56:28;;;;;;;22.75;14.10;;;10.50;99.90;;;;;;5030773;28;20072;-66
2023/08/28 04:58:54;;;;;;;22.80;14.18;;;10.70;99.90;;;;;;5023709;28;20046;-66
2023/08/28 05:01:19;;;;;;;25.50;14.82;;;10.80;99.90;;;;;;5030521;28;20038;-66
2023/08/28 05:03:45;;;;;;;23.23;14.38;;;10.80;99.90;;;;;;5031204;28;20038;-67
2023/08/28 05:06:11;;;;;;;27.00;15.35;;;10.90;99.90;;;;;;5031548;28;20033;-68
2023/08/28 05:08:36;;;;;;;27.52;14.73;;;10.90;99.90;;;;;;5015603;28;20048;-68
2023/08/28 05:11:04;;;;;;;24.88;14.35;;;10.90;99.90;;;;;;5012028;28;20506;-67
2023/08/28 05:13:29;;;;;;;23.65;15.10;;;10.90;99.90;;;;;;5022015;28;20042;-66
2023/08/28 05:15:55;;;;;;;26.73;14.60;;;11.00;99.90;;;;;;5011192;28;20057;-66
2023/08/28 05:18:22;;;;;;;27.67;15.25;;;11.00;99.90;;;;;;5009825;28;20391;-66
2023/08/28 05:20:47;;;;;;;26.27;14.70;;;11.00;99.90;;;;;;4998331;28;20045;-66
2023/08/28 05:23:13;;;;;;;24.60;15.35;;;11.00;99.90;;;;;;5021411;28;20410;-66
2023/08/28 05:25:39;;;;;;;25.52;14.98;;;11.10;99.90;;;;;;5021864;28;20041;-65
2023/08/28 05:28:04;;;;;;;24.88;15.15;;;11.10;99.90;;;;;;5018388;28;20049;-68
2023/08/28 05:30:30;;;;;;;30.00;14.73;;;11.10;99.90;;;;;;5017760;28;20546;-66
2023/08/28 05:32:56;;;;;;;25.77;14.90;;;11.10;99.90;;;;;;5015318;28;20069;-66
2023/08/28 05:35:22;;;;;;;24.77;14.15;;;11.10;99.90;;;;;;5000908;28;20119;-69
2023/08/28 05:37:47;;;;;;;23.52;14.50;;;11.20;99.90;;;;;;4999561;28;20522;-66
2023/08/28 05:40:16;;;;;;;24.08;14.45;;;11.20;99.90;;;;;;5016453;28;20443;-66
2023/08/28 05:42:45;;;;;;;26.60;14.48;;;11.30;99.90;;;;;;5020803;28;20038;-66
2023/08/28 05:45:10;;;;;;;25.40;15.02;;;11.30;99.90;;;;;;5022463;28;20052;-66
2023/08/28 05:47:36;;;;;;;27.50;15.15;;;11.40;99.90;;;;;;5020835;28;20416;-66
2023/08/28 05:50:03;;;;;;;28.15;14.38;;;11.50;99.90;;;;;;5020059;28;20061;-66
2023/08/28 05:52:29;;;;;;;25.75;14.68;;;11.60;99.90;;;;;;5022577;28;20080;-66
2023/08/28 05:54:54;;;;;;;24.70;14.63;;;11.60;99.90;;;;;;5021196;28;20065;-66
2023/08/28 05:57:21;;;;;;;27.02;15.23;;;11.70;99.90;;;;;;5032443;28;20046;-66
2023/08/28 05:59:46;;;;;;;31.13;15.27;;;11.80;99.90;;;;;;5022643;28;20118;-67
2023/08/28 06:02:13;;;;;;;26.42;16.08;;;11.80;99.90;;;;;;5019222;28;20145;-67
2023/08/28 06:04:38;;;;;;;26.92;15.52;;;12.00;99.90;;;;;;5032877;28;20041;-67
2023/08/28 06:07:04;;;;;;;28.00;16.38;;;12.00;99.90;;;;;;5012143;28;20072;-67
2023/08/28 06:09:31;;;;;;;28.00;15.60;;;12.10;99.90;;;;;;5005733;28;20080;-69
2023/08/28 06:11:56;;;;;;;25.73;15.82;;;12.20;99.90;;;;;;5033852;28;20041;-68
2023/08/28 06:14:22;;;;;;;26.65;15.80;;;12.30;99.90;;;;;;5034217;28;20107;-66
2023/08/28 06:16:48;;;;;;;26.77;15.38;;;12.40;99.90;;;;;;5002639;28;20104;-67
2023/08/28 06:19:13;;;;;;;29.25;15.48;;;12.50;99.90;;;;;;5031446;28;20112;-67
2023/08/28 06:21:43;;;;;;;27.38;15.40;;;12.60;99.90;;;;;;5016518;28;20061;-70
2023/08/28 06:24:09;;;;;;;30.85;16.27;;;12.60;99.90;;;;;;5021482;28;20133;-68
2023/08/28 06:26:34;;;;;;;31.40;15.73;;;12.80;99.90;;;;;;5027727;28;20117;-69
2023/08/28 06:29:00;;;;;;;27.90;16.63;;;12.90;99.90;;;;;;5033685;28;20095;-68
2023/08/28 06:31:26;;;;;;;28.83;15.75;;;12.90;99.90;;;;;;5024705;28;20033;-69
2023/08/28 06:33:51;;;;;;;27.13;16.40;;;13.00;99.90;;;;;;5014831;28;20034;-68
2023/08/28 06:36:17;;;;;;;29.80;16.85;;;13.10;99.90;;;;;;5015538;28;20037;-68
2023/08/28 06:38:42;;;;;;;28.45;16.13;;;13.20;99.90;;;;;;5033124;28;20053;-69
2023/08/28 06:41:08;;;;;;;27.30;16.38;;;13.30;99.90;;;;;;5024325;28;20038;-68
2023/08/28 06:43:33;;;;;;;26.77;15.98;;;13.40;99.90;;;;;;5015129;28;20124;-70
2023/08/28 06:45:59;;;;;;;27.58;16.55;;;13.50;99.90;;;;;;5033401;28;20045;-68
2023/08/28 06:48:25;;;;;;;31.25;15.95;;;13.60;99.90;;;;;;5027059;28;20503;-68
2023/08/28 06:50:51;;;;;;;27.15;15.05;;;13.70;99.90;;;;;;5020780;28;20038;-67
2023/08/28 06:53:17;;;;;;;22.98;15.38;;;13.80;99.90;;;;;;5028419;28;20786;-67
2023/08/28 06:55:43;;;;;;;21.83;14.35;;;13.90;99.90;;;;;;5041513;28;20131;-68
2023/08/28 06:58:08;;;;;;;21.25;13.68;;;14.00;99.90;;;;;;5026725;28;20041;-65
2023/08/28 07:00:34;;;;;;;24.50;13.75;;;14.10;99.90;;;;;;5019566;28;20046;-66
2023/08/28 07:02:59;;;;;;;23.88;14.30;;;14.20;99.90;;;;;;5019252;28;20108;-66
2023/08/28 07:05:25;;;;;;;22.02;13.23;;;14.30;99.90;;;;;;5018103;28;20033;-66
2023/08/28 07:07:51;;;;;;;20.67;13.35;;;14.40;99.90;;;;;;5024645;28;20534;-66
2023/08/28 07:10:16;;;;;;;21.08;13.45;;;14.40;99.90;;;;;;5025565;28;20037;-67
2023/08/28 07:12:42;;;;;;;21.13;12.98;;;14.50;99.90;;;;;;4998972;28;20045;-67
2023/08/28 07:15:13;;;;;;;18.30;12.32;;;14.60;99.90;;;;;;5020818;28;20061;-66
2023/08/28 07:17:39;;;;;;;;;;;14.80;99.90;;;;;;5020207;28;20112;-66
2023/08/28 07:20:06;;;;;;;20.17;12.27;;;14.80;99.90;;;;;;5021785;28;19971;-66
2023/08/28 07:22:31;;;;;;;19.52;11.57;;;14.90;99.90;;;;;;5013331;28;20037;-66
2023/08/28 07:24:57;;;;;;;19.58;12.10;;;15.00;99.90;;;;;;5006081;28;20052;-66
2023/08/28 07:27:23;;;;;;;17.27;11.40;;;15.10;99.90;;;;;;5008267;28;20042;-68
2023/08/28 07:29:48;;;;;;;20.77;13.15;;;15.20;99.90;;;;;;5017209;28;20034;-68
2023/08/28 07:32:14;;;;;;;18.92;12.25;;;15.20;99.90;;;;;;5031204;28;20038;-68
2023/08/28 07:34:40;;;;;;;17.80;12.82;;;15.30;99.90;;;;;;5032501;28;20040;-68
2023/08/28 07:37:05;;;;;;;19.75;11.55;;;15.40;99.90;;;;;;5019752;28;20037;-68
2023/08/28 07:39:31;;;;;;;20.17;11.38;;;15.50;99.90;;;;;;5000634;28;20124;-68
2023/08/28 07:41:57;;;;;;;14.85;10.73;;;15.50;99.90;;;;;;5024698;28;20073;-67
2023/08/28 07:44:24;;;;;;;16.48;10.45;;;15.60;99.90;;;;;;5035072;28;20098;-68
2023/08/28 07:46:49;;;;;;;14.90;9.90;;;15.70;99.90;;;;;;5039369;28;20053;-68
2023/08/28 07:49:15;;;;;;;11.82;8.45;;;15.70;99.90;;;;;;5027232;28;20048;-69
2023/08/28 07:51:40;;;;;;;11.65;8.57;;;15.70;99.90;;;;;;5014192;28;20037;-68
2023/08/28 07:54:06;;;;;;;11.60;8.25;;;15.70;99.90;;;;;;5014505;28;20046;-68
2023/08/28 07:56:32;;;;;;;14.35;9.05;;;15.70;99.90;;;;;;5026517;28;20034;-68
2023/08/28 07:58:58;;;;;;;17.98;10.40;;;15.90;99.90;;;;;;5026183;28;20042;-68
2023/08/28 08:01:23;;;;;;;13.02;9.38;;;15.90;99.90;;;;;;5004410;28;20048;-69
2023/08/28 08:03:49;;;;;;;12.98;9.48;;;16.10;99.90;;;;;;5027553;28;20492;-68
2023/08/28 08:06:16;;;;;;;12.75;10.00;;;16.30;99.90;;;;;;4997940;28;20053;-68
2023/08/28 08:08:45;;;;;;;13.90;8.57;;;16.40;99.90;;;;;;5025810;28;20112;-68
2023/08/28 08:11:11;;;;;;;11.00;7.85;;;16.40;99.90;;;;;;5019885;28;20042;-68
2023/08/28 08:13:37;;;;;;;11.50;8.18;;;16.50;99.90;;;;;;5020101;28;20034;-67
2023/08/28 08:16:04;;;;;;;12.18;7.88;;;16.60;99.90;;;;;;5030367;28;20033;-68
2023/08/28 08:18:30;;;;;;;13.15;7.75;;;16.60;99.90;;;;;;5019969;28;20103;-67
2023/08/28 08:20:56;;;;;;;12.05;7.60;;;16.60;99.90;;;;;;5030427;28;20037;-67
2023/08/28 08:23:22;;;;;;;8.77;5.88;;;16.70;99.90;;;;;;5030005;28;20033;-67
2023/08/28 08:25:48;;;;;;;10.15;6.68;;;16.80;99.90;;;;;;5019059;28;20120;-66
2023/08/28 08:28:15;;;;;;;10.77;6.10;;;16.80;99.90;;;;;;5021246;28;21351;-67
2023/08/28 08:30:41;;;;;;;8.68;4.95;;;16.90;99.90;;;;;;5015678;28;20044;-67
2023/08/28 08:33:07;;;;;;;8.57;6.60;;;16.90;99.90;;;;;;5027807;28;20491;-67
2023/08/28 08:35:36;;;;;;;8.13;5.20;;;17.00;99.90;;;;;;5039725;28;20041;-67
2023/08/28 08:38:02;;;;;;;10.82;5.20;;;17.10;99.90;;;;;;5014551;28;20060;-68
2023/08/28 08:40:27;;;;;;;7.18;4.68;;;17.20;99.90;;;;;;5010669;28;20053;-68
2023/08/28 08:42:56;;;;;;;7.00;4.72;;;17.30;99.90;;;;;;5013752;28;20076;-68
2023/08/28 08:45:30;;;;;;;7.57;4.97;;;17.50;99.90;;;;;;5007646;28;20037;-67
2023/08/28 08:47:59;;;;;;;6.03;3.67;;;17.60;99.90;;;;;;5024532;28;20049;-67
2023/08/28 08:50:26;;;;;;;6.22;3.25;;;17.70;99.90;;;;;;5025098;28;20050;-67
2023/08/28 08:52:57;;;;;;;4.72;3.42;;;17.70;99.90;;;;;;5026529;28;20044;-67
2023/08/28 08:55:45;;;;;;;7.05;3.78;;;17.90;99.90;;;;;;5029892;28;20064;-67
2023/08/28 08:58:15;;;;;;;6.65;3.65;;;18.10;99.90;;;;;;5029843;28;20050;-67
2023/08/28 09:00:43;;;;;;;7.15;2.97;;;18.20;99.90;;;;;;5025099;28;20192;-69
2023/08/28 09:03:09;;;;;;;8.82;2.85;;;18.40;99.90;;;;;;5019265;28;20041;-69
2023/08/28 09:05:39;;;;;;;6.60;2.38;;;18.60;99.90;;;;;;5026578;28;20091;-68
2023/08/28 09:08:06;;;;;;;5.15;3.20;;;18.70;99.90;;;;;;5007797;28;20698;-68
2023/08/28 09:10:32;;;;;;;5.35;2.70;;;18.80;99.90;;;;;;5032265;28;20065;-69
2023/08/28 09:12:58;;;;;;;5.53;2.95;;;18.90;99.90;;;;;;5018198;28;20034;-67
2023/08/28 09:15:24;;;;;;;4.43;2.40;;;18.90;99.90;;;;;;5022490;28;20511;-67
2023/08/28 09:17:51;;;;;;;3.70;2.50;;;18.90;99.90;;;;;;5056452;22;20020;-66
2023/08/28 09:20:17;;;;;;;7.78;2.58;;;18.90;99.90;;;;;;5033950;28;20046;-66
2023/08/28 09:22:51;;;;;;;2.97;2.00;;;18.80;99.90;;;;;;5034509;28;20072;-65
2023/08/28 09:25:18;;;;;;;4.53;2.05;;;18.90;99.90;;;;;;5022991;28;20510;-65
2023/08/28 09:27:46;;;;;;;3.85;2.30;;;18.90;99.90;;;;;;5042743;28;20056;-64
2023/08/28 09:30:26;;;;;;;3.20;1.75;;;19.00;99.90;;;;;;5039035;28;20088;-66
2023/08/28 09:32:51;;;;;;;4.05;1.80;;;19.00;99.90;;;;;;5019132;28;20073;-64
2023/08/28 09:35:20;;;;;;;2.55;1.85;;;18.90;99.90;;;;;;5011487;28;20123;-64
2023/08/28 09:37:55;;;;;;;3.95;1.95;;;18.70;99.90;;;;;;5029748;28;20450;-64
2023/08/28 09:40:32;;;;;;;3.33;1.63;;;18.60;99.90;;;;;;5009083;28;20061;-64
2023/08/28 09:42:58;;;;;;;3.20;1.73;;;18.50;99.90;;;;;;5024184;28;20499;-65
2023/08/28 09:45:32;;;;;;;3.10;1.27;;;18.40;99.90;;;;;;5013349;28;20059;-64
2023/08/28 09:47:57;;;;;;;2.45;1.30;;;18.50;99.90;;;;;;5032498;28;20052;-64
2023/08/28 09:50:31;;;;;;;2.67;1.20;;;18.50;99.90;;;;;;5033315;28;20045;-64
2023/08/28 09:53:11;;;;;;;3.58;1.58;;;18.60;99.90;;;;;;5023873;28;20030;-64
2023/08/28 09:55:38;;;;;;;1.30;1.20;;;18.80;99.90;;;;;;5026133;28;20037;-64
2023/08/28 09:58:11;;;;;;;3.88;1.80;;;18.90;99.90;;;;;;5025353;28;20052;-64
2023/08/28 10:00:40;;;;;;;3.25;1.52;;;19.00;99.90;;;;;;5054007;28;20040;-64
2023/08/28 10:03:13;;;;;;;3.00;1.80;;;19.10;99.90;;;;;;5014150;28;20580;-64
2023/08/28 10:05:41;;;;;;;3.55;1.70;;;19.40;99.90;;;;;;5032828;28;20038;-64
2023/08/28 10:08:09;;;;;;;2.92;1.95;;;19.50;99.90;;;;;;5023919;28;20100;-64
2023/08/28 10:10:35;;;;;;;6.15;2.00;;;19.60;99.90;;;;;;5023625;28;20053;-64
2023/08/28 10:13:04;;;;;;;3.17;2.20;;;19.70;99.90;;;;;;5014483;28;20123;-64
2023/08/28 10:15:36;;;;;;;3.72;2.15;;;19.80;99.90;;;;;;5037789;28;20044;-64
2023/08/28 10:18:09;;;;;;;3.08;1.88;;;19.90;99.90;;;;;;5023339;28;20059;-64
2023/08/28 10:20:36;;;;;;;5.18;1.80;;;19.90;99.90;;;;;;5026649;28;20399;-64
2023/08/28 10:23:03;;;;;;;5.28;1.65;;;19.90;99.90;;;;;;5034423;28;20136;-64
2023/08/28 10:25:30;;;;;;;1.95;1.30;;;19.90;99.90;;;;;;5010268;28;20033;-64
2023/08/28 10:27:57;;;;;;;2.65;1.45;;;20.00;99.90;;;;;;5027497;28;20064;-64
2023/08/28 10:30:26;;;;;;;3.28;1.60;;;19.90;99.90;;;;;;5030539;28;20048;-64
2023/08/28 10:32:54;;;;;;;2.40;1.70;;;19.80;99.90;;;;;;5044622;28;20029;-64
2023/08/28 10:35:21;;;;;;;3.47;2.15;;;19.70;99.90;;;;;;5024131;28;20033;-65
2023/08/28 10:37:49;;;;;;;3.45;1.90;;;19.60;99.90;;;;;;5022936;28;20041;-64
2023/08/28 10:40:17;;;;;;;4.28;1.70;;;19.60;99.90;;;;;;5022011;28;20410;-64
2023/08/28 10:42:45;;;;;;;5.88;2.00;;;19.60;99.90;;;;;;5026232;28;20052;-65
2023/08/28 10:45:11;;;;;;;3.20;2.13;;;19.70;99.90;;;;;;5020939;28;20657;-65
2023/08/28 10:47:37;;;;;;;4.05;2.00;;;19.80;99.90;;;;;;5029341;28;20072;-66
2023/08/28 10:50:05;;;;;;;3.63;2.20;;;20.00;99.90;;;;;;5013751;28;20110;-66
2023/08/28 10:52:31;;;;;;;3.85;2.17;;;19.90;99.90;;;;;;5032975;28;20029;-65
2023/08/28 10:55:03;;;;;;;4.90;2.40;;;19.90;99.90;;;;;;5041531;28;20372;-65
2023/08/28 10:57:29;;;;;;;4.32;2.40;;;20.00;99.90;;;;;;5020510;28;21336;-66
2023/08/28 10:59:58;;;;;;;5.72;2.50;;;20.00;99.90;;;;;;5008431;28;20033;-66
2023/08/28 11:02:24;;;;;;;3.78;2.20;;;20.10;99.90;;;;;;5026726;28;20127;-66
2023/08/28 11:04:50;;;;;;;4.47;2.22;;;20.20;99.90;;;;;;5028446;28;20493;-66
2023/08/28 11:07:21;;;;;;;5.22;2.20;;;20.30;99.90;;;;;;5001405;28;20045;-66
2023/08/28 11:09:48;;;;;;;3.72;1.73;;;20.40;99.90;;;;;;5007721;28;20674;-66
2023/08/28 11:12:15;;;;;;;2.45;1.48;;;20.50;99.90;;;;;;5004389;28;20042;-65
2023/08/28 11:14:55;;;;;;;3.38;1.67;;;20.50;99.90;;;;;;5032587;28;20104;-64
2023/08/28 11:17:22;;;;;;;2.75;1.40;;;20.70;99.90;;;;;;5029683;28;20095;-66
2023/08/28 11:19:54;;;;;;;1.77;1.20;;;20.70;99.90;;;;;;5035793;28;20442;-66
2023/08/28 11:22:37;;;;;;;2.28;1.20;;;20.90;99.90;;;;;;5039539;28;20043;-66
2023/08/28 11:25:11;;;;;;;2.40;1.00;;;21.00;99.90;;;;;;5034050;28;20077;-65
2023/08/28 11:27:45;;;;;;;1.13;0.80;;;21.10;99.90;;;;;;5030447;28;20129;-66
2023/08/28 11:30:12;;;;;;;0.98;0.93;;;21.20;99.90;;;;;;5032091;28;20041;-65
2023/08/28 11:32:40;;;;;;;1.73;1.00;;;21.30;99.90;;;;;;5009549;28;20038;-64
2023/08/28 11:35:13;;;;;;;1.77;1.10;;;21.50;99.90;;;;;;5025502;28;20044;-65
2023/08/28 11:37:46;;;;;;;1.60;1.00;;;21.60;99.90;;;;;;5013217;28;20483;-65
2023/08/28 11:40:25;;;;;;;2.05;1.30;;;21.80;99.90;;;;;;5016028;28;20128;-65
2023/08/28 11:43:08;;;;;;;1.60;1.10;;;21.90;99.90;;;;;;5028360;28;20041;-65
2023/08/28 11:45:34;;;;;;;2.97;1.20;;;22.10;99.90;;;;;;5028523;28;20044;-64
2023/08/28 11:48:04;;;;;;;1.65;1.05;;;22.10;99.90;;;;;;5015677;28;20125;-64
2023/08/28 11:50:29;;;;;;;1.50;1.00;;;22.00;99.90;;;;;;5015437;28;20128;-64
2023/08/28 11:52:55;;;;;;;1.60;1.10;;;22.10;99.90;;;;;;5028798;28;20056;-64
2023/08/28 11:55:21;;;;;;;1.20;1.10;;;21.80;99.90;;;;;;5032906;28;20499;-64
2023/08/28 11:57:49;;;;;;;1.50;1.20;;;22.00;99.90;;;;;;5038050;28;20398;-65
2023/08/28 12:00:16;;;;;;;2.90;1.40;;;22.00;99.90;;;;;;5020302;28;20487;-65
2023/08/28 12:02:46;;;;;;;2.22;1.20;;;22.00;99.90;;;;;;5027250;28;20373;-64
2023/08/28 12:05:15;;;;;;;2.22;1.27;;;22.10;99.90;;;;;;5030399;28;20037;-64
2023/08/28 12:07:43;;;;;;;3.25;1.60;;;22.20;99.90;;;;;;5029013;28;20472;-64
2023/08/28 12:10:09;;;;;;;5.03;1.50;;;22.30;99.90;;;;;;5022197;28;20068;-65
2023/08/28 12:12:36;;;;;;;4.90;1.50;;;22.50;99.90;;;;;;5027465;28;20041;-65
2023/08/28 12:15:03;;;;;;;4.10;1.40;;;22.60;99.90;;;;;;5019147;28;20053;-65
2023/08/28 12:17:29;;;;;;;3.22;1.33;;;22.90;99.90;;;;;;5019822;28;20036;-66
2023/08/28 12:19:55;;;;;;;0.95;0.88;;;22.80;99.90;;;;;;5005072;28;20042;-66
2023/08/28 12:22:21;;;;;;;3.22;1.20;;;22.90;99.90;;;;;;5007769;28;20037;-66
2023/08/28 12:24:49;;;;;;;2.22;1.08;;;22.80;99.90;;;;;;5026352;28;20395;-66
2023/08/28 12:27:16;;;;;;;1.63;1.00;;;22.40;99.90;;;;;;5013446;28;20488;-66
2023/08/28 12:29:42;;;;;;;4.57;1.02;;;22.10;99.90;;;;;;5030934;28;20048;-66
2023/08/28 12:32:14;;;;;;;3.00;1.20;;;21.80;99.90;;;;;;5010507;28;20038;-66
2023/08/28 12:34:40;;;;;;;3.10;1.35;;;21.60;99.90;;;;;;5012918;28;20037;-66
2023/08/28 12:37:08;;;;;;;1.90;1.27;;;21.50;99.90;;;;;;5031256;28;20099;-66